[source: ADDS]
METAR
EDVE 181220Z 29005KT 240V320 9999 FEW013 OVC043 16/13 Q1017

TAF EDVE 181100Z 1812/1821 26006KT 9999 BKN020 TEMPO 1812/1819 4500 -SHRA BKN012 PROB30 TEMPO 1812/1819 BKN007 EDDV 181220Z 33003KT 290V030 9999 FEW016 BKN040 17/13 Q1018 NOSIG

TAF EDDV 181100Z 1812/1912 VRB03KT 9999 BKN025 BECMG 1812/1816 05005KT PROB30 TEMPO 1812/1819 4500 -SHRA BKN012 PROB40 TEMPO 1907/1912 08010KT ETHS 181220Z AUTO 03004KT 4700 // ////// 17/13 Q1017 ///

ETHC 181220Z AUTO 01007KT 9999 // ////// 17/13 Q1017 ///

EDVK 181220Z 36004KT 330V060 9999 BKN028 17/11 Q1017

TAF EDVK 181100Z 1812/1821 01004KT 9999 SCT020 BKN040
TAF
TAF EDVE 181100Z 1812/1821 26006KT 9999 BKN020 TEMPO 1812/1819 4500 -SHRA BKN012 PROB30 TEMPO 1812/1819 BKN007

TAF EDDV 181100Z 1812/1912 VRB03KT 9999 BKN025 BECMG 1812/1816 05005KT PROB30 TEMPO 1812/1819 4500 -SHRA BKN012 PROB40 TEMPO 1907/1912 08010KT

TAF EDVK 181100Z 1812/1821 01004KT 9999 SCT020 BKN040

SR / SS: 04:57 / 17:26 UTC (EDVE 2021-09-18)
Micha hat seine praktische PPL-Prüfung bestanden! Herzlichen Glückwunsch und weiterhin Happy Landings! +++ Willkommen bei der FFG, Arman! Viel Erfolg bei der Ausbildung! +++ Wir heißen Torben als neuen Flugschüler willkommen und wünschen eine erfolgreiche Ausbildung! +++ Und noch ein frischgebackener Pilot in der FFG: Frederik hat seine PPL-Prüfung bestanden! Gratulation und weiterhin Happy Landings! +++ Herzlich Willkommen bei der FFG, Marc! Viel Spaß und Erfolg bei deiner Ausbildung! +++ Felix hat seine praktische PPL-Prüfung bestanden! Herzlichen Glückwunsch und always Happy Landings! +++ Wir gratulieren Thiago zum ersten Soloflug! Herzlichen Glückwunsch und weiterhin Happy Landings! +++ Wir heißen Hendrik und Alexander als neue Flugschüler willkommen und wünschen eine erfolgreiche Ausbildung! +++ Patrick hat seine praktische PPL-Prüfung bestanden! Gratulation und weiterhin Happy Landings!

wenig -> mittel -> viel

Professionelle Piloten arbeiten mit Checkliste
Ausdrucken und abarbeiten!

Weiterlesen ...

 Zugang zur DFS. Auf dem FFG-Account sind alle erforderlichen Daten unserer Maschinen hinterlegt.

DFS Login

Hier gibt es die AIP mit allen erforderlichen Karten die im Abo der FFG liegen zum Download für unsere Mitglieder.

Charts Zugang
Letztes NOTAM EDVE
von 07.10.2021 0000Z bis 20.10.2021 2359Z
TRIGGER NOTAM - PERM AIRAC AIP AMDT 10/21 EFFECTIVE 07OCT 2021. CHANGES TO RUNWAY PHYSICAL CHARACTERISTICS, AND ELEV.

Letztes NOTAM EDCB
von 20.09.2021 0600Z bis 25.09.2021 1800Z
DAILY 0600-1800
SPECIAL ACTIVITY AREA ESTABLISHED FOR AEROBATICS RADIUS 2NM CENTERED ON 514446N 0111351E BALLENSTEDT (10.7NM SW C [more]


Letztes NOTAM EDBC
von 01.09.2021 0949Z bis 01.12.2021 2359Z
ILS RWY 26 U/S.

Letztes NOTAM EDVM
von 16.09.2021 1700Z bis 20.09.2021 1725Z
DIESEL FUELSTATION U/S.

Letztes NOTAM EDVI
von 24.09.2021 1700Z bis 01.10.2021 2000Z
GLIDER STRIP AVBL PPR.

Letztes NOTAM EDDV
von 14.09.2021 1446Z bis 14.10.2021 2359Z
PAGE AD 2 EDDV 1-9 EFF. 07 OCT 2021 CONTAINS ERRORS BY TECHNICAL PROBLEMS. THE VALUES CHANGED UNINTENTIONALLY WHILE GENERATING THE [more]

Letztes NOTAM EDVK
von 07.10.2021 0000Z bis 20.10.2021 2359Z
TRIGGER NOTAM - PERM AIRAC AIP AMDT 10/21 EFFECTIVE 07 OCT 2021. CHANGES TO RUNWAY PHYSICAL CHARACTERISTICS, AND ELEV.